Time;durP1;ratioP1;P1;durP2;ratioP2;P2;SDS_P1;SDS_P2;PMS_P1;PMS_P2;Temp;Humidity;BMP_temperature;BMP_pressure;BME280_temperature;BME280_humidity;BME280_pressure;Samples;Min_cycle;Max_cycle;Signal;HPM_P1;HPM_P2
2023/04/05 00:01:53;;;;;;;7.20;2.60;;;;;;;5.46;74.26;100364.63;105558;1262;60564;-47
2023/04/05 00:04:22;;;;;;;8.00;2.40;;;;;;;5.41;74.28;100357.39;105440;1257;66252;-46
2023/04/05 00:06:51;;;;;;;7.20;1.90;;;;;;;5.41;74.30;100349.08;105442;1261;63074;-50
2023/04/05 00:09:20;;;;;;;8.90;5.90;;;;;;;5.41;74.19;100349.74;105652;1256;64995;-47
2023/04/05 00:11:49;;;;;;;6.70;3.20;;;;;;;5.37;74.62;100347.23;105642;1256;60547;-47
2023/04/05 00:14:17;;;;;;;5.40;1.80;;;;;;;5.30;74.74;100342.39;105497;1256;60563;-46
2023/04/05 00:16:46;;;;;;;7.70;4.60;;;;;;;5.33;74.60;100335.11;106016;1259;66184;-47
2023/04/05 00:19:14;;;;;;;6.90;2.60;;;;;;;5.33;74.44;100331.60;105365;1261;62428;-46
2023/04/05 00:21:43;;;;;;;10.60;5.80;;;;;;;5.28;74.62;100329.66;105287;1261;64725;-46
2023/04/05 00:24:14;;;;;;;4.60;1.60;;;;;;;5.28;74.71;100326.35;105348;1256;60494;-46
2023/04/05 00:26:43;;;;;;;4.60;1.50;;;;;;;5.33;74.57;100329.34;105512;1256;60549;-46
2023/04/05 00:29:11;;;;;;;5.10;1.60;;;;;;;5.36;74.61;100323.95;105596;1260;66351;-46
2023/04/05 00:31:39;;;;;;;6.80;4.20;;;;;;;5.37;74.47;100326.36;105469;1256;65423;-45
2023/04/05 00:34:09;;;;;;;5.20;1.80;;;;;;;5.34;74.47;100322.48;105603;1257;65028;-46
2023/04/05 00:36:38;;;;;;;6.90;4.30;;;;;;;5.33;74.71;100320.64;105697;1260;60429;-47
2023/04/05 00:39:07;;;;;;;5.40;2.00;;;;;;;5.37;74.52;100322.67;105670;1256;60786;-47
2023/04/05 00:41:35;;;;;;;5.70;1.80;;;;;;;5.43;74.40;100321.48;105358;1260;66152;-46
2023/04/05 00:44:06;;;;;;;6.90;4.70;;;;;;;5.47;74.33;100313.92;105447;1256;62642;-47
2023/04/05 00:46:38;;;;;;;5.20;1.80;;;;;;;5.47;74.34;100303.33;105404;1260;64873;-47
2023/04/05 00:49:06;;;;;;;7.50;4.40;;;;;;;5.41;74.16;100296.69;105558;1256;60483;-47
2023/04/05 00:51:36;;;;;;;5.00;1.40;;;;;;;5.38;74.27;100292.16;105522;1256;60587;-48
2023/04/05 00:54:05;;;;;;;7.20;4.20;;;;;;;5.40;74.11;100296.05;105368;1261;65818;-48
2023/04/05 00:56:33;;;;;;;3.70;1.10;;;;;;;5.37;74.04;100295.04;105518;1260;70342;-46
2023/04/05 00:59:03;;;;;;;9.50;5.00;;;;;;;5.34;74.17;100302.66;105349;1256;64909;-47
2023/04/05 01:01:33;;;;;;;5.60;2.00;;;;;;;5.31;74.31;100305.84;105395;1256;60477;-47
2023/04/05 01:04:04;;;;;;;8.40;4.90;;;;;;;5.27;74.30;100309.73;105281;1256;60522;-47
2023/04/05 01:06:46;;;;;;;6.00;2.20;;;;;;;5.28;74.23;100308.05;105373;1261;66156;-48
2023/04/05 01:09:39;;;;;;;9.50;5.30;;;;;;;5.27;74.32;100306.94;105339;1256;62362;-46
2023/04/05 01:12:08;;;;;;;7.30;1.50;;;;;;;5.26;74.40;100301.40;105399;1256;64014;-48
2023/04/05 01:14:46;;;;;;;8.10;2.10;;;;;;;5.29;74.41;100301.77;105382;1256;60491;-47
2023/04/05 01:17:21;;;;;;;5.40;1.90;;;;;;;5.35;74.40;100300.04;105617;1256;60499;-48
2023/04/05 01:19:57;;;;;;;8.20;5.50;;;;;;;5.37;74.44;100298.00;105475;1261;64881;-48
2023/04/05 01:22:40;;;;;;;6.60;2.70;;;;;;;5.34;74.35;100291.23;105734;1262;63156;-46
2023/04/05 01:25:37;;;;;;;5.90;2.00;;;;;;;5.30;74.17;100283.78;105420;1262;64712;-48
2023/04/05 01:28:22;;;;;;;6.20;2.10;;;;;;;5.32;74.03;100287.67;105365;1256;60545;-47
2023/04/05 01:30:53;;;;;;;5.20;2.50;;;;;;;5.30;74.06;100282.38;105637;1260;60844;-47
2023/04/05 01:33:46;;;;;;;9.20;6.40;;;;;;;5.25;74.13;100277.64;105426;1262;66353;-48
2023/04/05 01:36:59;;;;;;;5.40;2.20;;;;;;;5.21;74.28;100279.08;105453;1256;62801;-48
2023/04/05 01:39:28;;;;;;;5.90;2.10;;;;;;;5.25;74.26;100269.69;105004;1263;65073;-48
2023/04/05 01:41:58;;;;;;;9.30;5.90;;;;;;;5.25;74.33;100262.00;105311;1262;61020;-46
2023/04/05 01:44:27;;;;;;;6.80;2.50;;;;;;;5.23;74.53;100251.36;105436;1256;60560;-46
2023/04/05 01:46:56;;;;;;;5.40;1.60;;;;;;;5.17;74.53;100246.80;105525;1257;66189;-46
2023/04/05 01:49:25;;;;;;;5.60;2.50;;;;;;;5.18;74.44;100242.04;105453;1256;62316;-48
2023/04/05 01:51:53;;;;;;;7.30;4.80;;;;;;;5.19;74.50;100240.80;105527;1260;64996;-47
2023/04/05 01:54:21;;;;;;;4.80;1.50;;;;;;;5.18;74.52;100240.68;105419;1259;60543;-47
2023/04/05 01:56:50;;;;;;;5.50;2.10;;;;;;;5.13;74.67;100234.75;105342;1256;60431;-46
2023/04/05 01:59:19;;;;;;;3.80;1.20;;;;;;;5.10;74.68;100240.65;105640;1260;65927;-46
2023/04/05 02:01:47;;;;;;;8.40;5.20;;;;;;;5.15;74.56;100237.90;105416;1256;62345;-46
2023/04/05 02:04:17;;;;;;;7.40;2.50;;;;;;;5.15;74.50;100236.86;105526;1257;65001;-46
2023/04/05 02:06:47;;;;;;;6.10;2.20;;;;;;;5.11;74.66;100235.36;105403;1260;60434;-47
2023/04/05 02:09:15;;;;;;;9.60;5.90;;;;;;;5.09;74.95;100235.64;105521;1262;60458;-47
2023/04/05 02:11:45;;;;;;;7.90;5.00;;;;;;;5.14;75.01;100237.96;105606;1260;66086;-46
2023/04/05 02:14:23;;;;;;;4.40;1.80;;;;;;;5.20;74.96;100230.47;105516;1256;62425;-47
2023/04/05 02:16:54;;;;;;;9.20;6.00;;;;;;;5.19;74.93;100224.95;105473;1261;64700;-47
2023/04/05 02:19:24;;;;;;;4.50;1.40;;;;;;;5.17;74.76;100228.02;105523;1256;60480;-46
2023/04/05 02:21:56;;;;;;;6.30;1.90;;;;;;;5.17;74.66;100231.85;105532;1263;61607;-46
2023/04/05 02:24:25;;;;;;;7.20;4.60;;;;;;;5.22;74.66;100228.94;105437;1262;65948;-47
2023/04/05 02:26:53;;;;;;;5.20;1.90;;;;;;;5.24;74.43;100226.41;105327;1256;62635;-46
2023/04/05 02:29:23;;;;;;;6.40;2.10;;;;;;;5.25;74.21;100222.40;105490;1256;65033;-46
2023/04/05 02:31:51;;;;;;;4.90;1.60;;;;;;;5.19;74.36;100219.39;105391;1256;60602;-46
2023/04/05 02:34:21;;;;;;;8.60;4.50;;;;;;;5.16;74.57;100214.87;105331;1260;60552;-47
2023/04/05 02:36:50;;;;;;;4.90;1.90;;;;;;;5.18;74.57;100214.92;105731;1256;66262;-47
2023/04/05 02:39:18;;;;;;;6.90;3.70;;;;;;;5.23;74.52;100220.05;105548;1259;62636;-47
2023/04/05 02:41:48;;;;;;;6.80;2.10;;;;;;;5.22;74.50;100226.16;105654;1254;64353;-47
2023/04/05 02:44:17;;;;;;;7.70;4.70;;;;;;;5.22;74.57;100226.85;105675;1253;60450;-47
2023/04/05 02:46:49;;;;;;;4.70;2.20;;;;;;;5.26;74.47;100218.33;105577;1253;60421;-47
2023/04/05 02:49:19;;;;;;;5.20;1.70;;;;;;;5.28;74.28;100215.74;105561;1254;66430;-48
2023/04/05 02:51:48;;;;;;;7.10;2.30;;;;;;;5.27;74.41;100219.23;105553;1257;62419;-47
2023/04/05 02:54:17;;;;;;;9.60;5.30;;;;;;;5.24;74.61;100214.06;105763;1259;64807;-47
2023/04/05 02:56:48;;;;;;;5.80;2.00;;;;;;;5.20;74.66;100211.84;105714;1253;60448;-46
2023/04/05 02:59:17;;;;;;;7.80;4.50;;;;;;;5.25;74.65;100220.41;105524;1254;60441;-47
2023/04/05 03:01:45;;;;;;;5.90;2.10;;;;;;;5.33;74.56;100225.34;105619;1258;66158;-46
2023/04/05 03:04:21;;;;;;;8.00;1.90;;;;;;;5.30;74.47;100223.10;106253;1253;62274;-46
2023/04/05 03:06:56;;;;;;;7.00;4.00;;;;;;;5.23;74.50;100220.71;105513;1258;65033;-47
2023/04/05 03:09:32;;;;;;;5.20;1.70;;;;;;;5.19;74.47;100215.94;105824;1259;60565;-47
2023/04/05 03:12:04;;;;;;;5.90;3.60;;;;;;;5.21;74.34;100218.22;105479;1254;60542;-47
2023/04/05 03:14:38;;;;;;;4.60;1.80;;;;;;;5.19;74.36;100218.20;105628;1254;66309;-47
2023/04/05 03:17:07;;;;;;;3.80;1.30;;;;;;;5.14;74.73;100215.71;105587;1253;62464;-50
2023/04/05 03:19:39;;;;;;;5.50;3.00;;;;;;;5.16;74.93;100216.46;105651;1258;64709;-47
2023/04/05 03:22:15;;;;;;;4.90;1.60;;;;;;;5.21;74.75;100220.13;105521;1259;60445;-46
2023/04/05 03:24:43;;;;;;;4.50;1.30;;;;;;;5.22;74.84;100222.00;105481;1253;535452;-46
2023/04/05 03:28:31;;;;;;;3.90;1.10;;;;;;;4.91;75.66;100222.63;102462;1293;600970;-47
2023/04/05 03:31:02;;;;;;;5.30;2.00;;;;;;;5.06;75.39;100217.77;104867;1272;59450;-46
2023/04/05 03:33:31;;;;;;;4.50;1.30;;;;;;;5.10;75.23;100211.40;105014;1267;59289;-47
2023/04/05 03:36:00;;;;;;;5.40;2.80;;;;;;;5.07;75.33;100198.90;104766;1269;64654;-47
2023/04/05 03:38:33;;;;;;;5.60;2.90;;;;;;;5.07;75.28;100200.48;104755;1267;62641;-46
2023/04/05 03:41:18;;;;;;;3.40;1.00;;;;;;;5.10;75.24;100204.14;104665;1269;198230;-46
2023/04/05 03:43:47;;;;;;;6.50;3.10;;;;;;;5.13;75.42;100209.85;104966;1264;59240;-47
2023/04/05 03:46:16;;;;;;;5.40;1.70;;;;;;;5.11;75.36;100207.21;105124;1264;59262;-47
2023/04/05 03:48:44;;;;;;;5.30;2.60;;;;;;;5.10;75.41;100204.81;105426;1267;64279;-47
2023/04/05 03:51:14;;;;;;;3.50;1.20;;;;;;;5.10;75.31;100203.08;105155;1264;62367;-48
2023/04/05 03:53:46;;;;;;;4.90;2.70;;;;;;;5.14;75.03;100201.11;105040;1264;65042;-47
2023/04/05 03:56:14;;;;;;;4.30;1.60;;;;;;;5.08;75.07;100191.18;104882;1264;59729;-46
2023/04/05 03:58:45;;;;;;;3.70;1.10;;;;;;;5.08;75.11;100194.01;105202;1265;59637;-47
2023/04/05 04:01:14;;;;;;;5.20;2.80;;;;;;;5.14;75.09;100201.45;105132;1269;65438;-47
2023/04/05 04:03:43;;;;;;;4.50;1.30;;;;;;;5.15;74.89;100198.77;104874;1264;62514;-47
2023/04/05 04:06:12;;;;;;;6.50;3.10;;;;;;;5.09;75.10;100196.15;104998;1268;64027;-47
2023/04/05 04:08:41;;;;;;;3.50;1.20;;;;;;;5.08;75.17;100196.05;104761;1264;59758;-48
2023/04/05 04:11:10;;;;;;;4.50;1.50;;;;;;;5.11;75.05;100199.20;104855;1264;59743;-47
2023/04/05 04:13:41;;;;;;;5.90;3.20;;;;;;;5.11;75.11;100193.27;105125;1267;64417;-45
2023/04/05 04:16:23;;;;;;;3.60;1.40;;;;;;;5.15;75.05;100192.31;104944;1263;62752;-47
2023/04/05 04:19:28;;;;;;;3.90;1.20;;;;;;;5.15;75.08;100192.33;104554;1269;64596;-47
2023/04/05 04:22:32;;;;;;;4.40;1.50;;;;;;;5.20;75.19;100201.05;104807;1269;59857;-47
2023/04/05 04:25:30;;;;;;;6.70;3.80;;;;;;;5.20;75.40;100204.58;104954;1264;59650;-46
2023/04/05 04:28:19;;;;;;;5.20;1.30;;;;;;;5.22;75.39;100199.74;105269;1269;65374;-46
2023/04/05 04:31:12;;;;;;;3.90;1.60;;;;;;;5.29;75.07;100201.91;105003;1269;62691;-47
2023/04/05 04:33:54;;;;;;;5.90;3.20;;;;;;;5.32;75.06;100195.80;104891;1265;66073;-47
2023/04/05 04:39:08;;;;;;;3.90;1.50;;;;;;;5.15;75.70;100185.52;104845;1286;601746;-95
2023/04/05 04:42:48;;;;;;;5.50;2.90;;;;;;;5.39;75.16;100203.23;106261;1265;59380;-96
2023/04/05 04:45:46;;;;;;;5.90;2.60;;;;;;;5.50;74.75;100211.08;106416;1262;59287;-96
2023/04/05 04:48:46;;;;;;;4.30;2.00;;;;;;;5.50;74.61;100212.67;106011;1263;63191;-96
2023/04/05 05:10:31;;;;;;;3.90;1.30;;;;;;;5.41;74.67;100187.45;105456;1256;73710;-58
2023/04/05 05:13:04;;;;;;;4.20;1.10;;;;;;;5.35;74.76;100177.20;104942;1266;65030;-58
2023/04/05 05:15:32;;;;;;;5.80;2.60;;;;;;;5.36;74.65;100176.77;104730;1266;59729;-59
2023/04/05 05:18:02;;;;;;;5.40;1.40;;;;;;;5.41;74.57;100183.10;104992;1266;59534;-58
2023/04/05 05:20:31;;;;;;;6.00;3.00;;;;;;;5.41;74.80;100188.85;104602;1270;66130;-60
2023/04/05 05:23:01;;;;;;;4.70;1.40;;;;;;;5.38;74.85;100186.90;104935;1268;61453;-59
2023/04/05 05:25:30;;;;;;;5.30;2.90;;;;;;;5.40;74.77;100190.65;104574;1267;73289;-60
2023/04/05 05:27:59;;;;;;;4.20;1.40;;;;;;;5.45;74.81;100190.02;104848;1266;59678;-60
2023/04/05 05:30:29;;;;;;;5.60;1.20;;;;;;;5.46;75.01;100184.39;104760;1266;59765;-60
2023/04/05 05:33:00;;;;;;;6.40;3.00;;;;;;;5.45;75.04;100185.46;104663;1265;65365;-58
2023/04/05 05:35:28;;;;;;;4.50;1.90;;;;;;;5.46;74.81;100187.66;104659;1266;62337;-58
2023/04/05 05:37:57;;;;;;;4.60;1.10;;;;;;;5.46;74.52;100184.71;104916;1266;65030;-57
2023/04/05 05:40:25;;;;;;;6.10;3.50;;;;;;;5.43;74.78;100180.05;104799;1266;60885;-60
2023/04/05 05:42:55;;;;;;;5.80;3.10;;;;;;;5.37;75.25;100176.90;104735;1268;59644;-62
2023/04/05 05:45:23;;;;;;;7.10;2.60;;;;;;;5.36;75.28;100166.20;105027;1265;64219;-56
2023/04/05 05:47:51;;;;;;;5.90;2.40;;;;;;;5.32;75.15;100163.65;104772;1266;63222;-59
2023/04/05 05:50:19;;;;;;;4.90;2.60;;;;;;;5.30;75.07;100155.10;105161;1266;64877;-60
2023/04/05 05:52:48;;;;;;;3.70;1.20;;;;;;;5.31;75.17;100157.09;104913;1268;59326;-59
2023/04/05 05:55:16;;;;;;;4.70;1.40;;;;;;;5.35;75.29;100159.11;104681;1265;59734;-57
2023/04/05 05:57:45;;;;;;;4.00;1.20;;;;;;;5.31;75.49;100154.70;104607;1266;64393;-60
2023/04/05 06:00:18;;;;;;;5.10;2.60;;;;;;;5.28;75.63;100149.64;104555;1266;62747;-58
2023/04/05 06:02:49;;;;;;;4.30;1.10;;;;;;;5.34;75.39;100154.15;104898;1266;64208;-59
2023/04/05 06:05:17;;;;;;;2.40;0.70;;;;;;;5.40;75.39;100161.98;105083;1266;59707;-58
2023/04/05 06:07:45;;;;;;;6.70;2.90;;;;;;;5.46;75.29;100162.48;104653;1265;59688;-58
2023/04/05 06:10:19;;;;;;;3.40;1.00;;;;;;;5.42;75.13;100163.20;105050;1263;65459;-57
2023/04/05 06:12:48;;;;;;;3.50;0.90;;;;;;;5.44;74.98;100163.80;104874;1266;62635;-57
2023/04/05 06:15:16;;;;;;;3.90;1.10;;;;;;;5.49;74.82;100159.66;104717;1263;65061;-58
2023/04/05 06:17:44;;;;;;;4.60;1.70;;;;;;;5.50;75.01;100164.12;105003;1265;59669;-56
2023/04/05 06:20:14;;;;;;;3.80;1.30;;;;;;;5.50;75.42;100165.68;105011;1264;59673;-59
2023/04/05 06:22:48;;;;;;;4.80;2.40;;;;;;;5.57;75.44;100166.66;104594;1267;74136;-59
2023/04/05 06:25:16;;;;;;;3.00;0.90;;;;;;;5.59;75.00;100156.05;105130;1263;62679;-60
2023/04/05 06:27:45;;;;;;;6.40;2.60;;;;;;;5.61;74.80;100167.13;104899;1269;64722;-59
2023/04/05 06:30:14;;;;;;;4.50;1.00;;;;;;;5.61;74.81;100173.88;104832;1263;60882;-59
2023/04/05 06:32:42;;;;;;;4.90;2.00;;;;;;;5.67;74.82;100174.56;104894;1263;59626;-57
2023/04/05 06:35:11;;;;;;;3.50;1.20;;;;;;;5.69;74.53;100172.14;104816;1268;65088;-62
2023/04/05 06:37:43;;;;;;;4.90;2.50;;;;;;;5.68;74.18;100169.11;104760;1268;61645;-57
2023/04/05 06:40:11;;;;;;;3.50;1.20;;;;;;;5.69;74.44;100166.23;104918;1263;65711;-59
2023/04/05 06:42:43;;;;;;;4.30;1.30;;;;;;;5.73;74.49;100171.88;104921;1263;60421;-60
2023/04/05 06:45:12;;;;;;;4.90;2.30;;;;;;;5.78;74.14;100171.61;104884;1263;59772;-60
2023/04/05 06:47:40;;;;;;;4.50;2.00;;;;;;;5.81;74.10;100169.51;105016;1266;64415;-57
2023/04/05 06:50:09;;;;;;;3.80;0.80;;;;;;;5.81;74.06;100167.42;105596;1264;65521;-57
2023/04/05 06:52:37;;;;;;;4.60;2.30;;;;;;;5.80;74.12;100160.00;105202;1264;64796;-59
2023/04/05 06:55:07;;;;;;;4.20;1.30;;;;;;;5.82;74.26;100153.91;104920;1264;59655;-56
2023/04/05 06:57:35;;;;;;;5.00;2.60;;;;;;;5.84;74.28;100154.51;104732;1267;59665;-57
2023/04/05 07:00:11;;;;;;;4.60;2.00;;;;;;;5.89;74.49;100166.92;105107;1263;65609;-57
2023/04/05 07:02:41;;;;;;;6.10;3.10;;;;;;;5.95;74.24;100164.77;105057;1264;62827;-58
2023/04/05 07:05:12;;;;;;;6.20;3.10;;;;;;;6.02;74.15;100164.35;104546;1263;64727;-57
2023/04/05 07:07:47;;;;;;;5.60;3.00;;;;;;;6.07;74.29;100158.29;104873;1264;59883;-57
2023/04/05 07:10:16;;;;;;;4.90;1.50;;;;;;;6.06;74.30;100150.67;104863;1268;59666;-58
2023/04/05 07:12:44;;;;;;;5.80;2.70;;;;;;;6.10;74.26;100147.46;104976;1263;65439;-57
2023/04/05 07:15:14;;;;;;;5.50;3.00;;;;;;;6.15;74.20;100140.66;104931;1268;63035;-57
2023/04/05 07:17:43;;;;;;;5.60;2.00;;;;;;;6.15;73.91;100146.23;104787;1266;65185;-58
2023/04/05 07:20:13;;;;;;;4.30;2.50;;;;;;;6.13;74.09;100153.19;104848;1263;59640;-58
2023/04/05 07:22:42;;;;;;;3.60;1.20;;;;;;;6.17;74.14;100151.02;104801;1263;59634;-60
2023/04/05 07:25:11;;;;;;;6.00;3.40;;;;;;;6.23;73.98;100151.11;104985;1262;65125;-58
2023/04/05 07:27:41;;;;;;;6.40;3.70;;;;;;;6.26;73.92;100147.65;105001;1266;62686;-58
2023/04/05 07:30:14;;;;;;;4.80;2.00;;;;;;;6.24;73.89;100152.10;104738;1264;65222;-58
2023/04/05 07:32:45;;;;;;;6.80;4.00;;;;;;;6.26;73.85;100145.70;104804;1263;59754;-61
2023/04/05 07:35:14;;;;;;;6.30;3.70;;;;;;;6.30;73.74;100147.05;105442;1263;59565;-59
2023/04/05 07:37:42;;;;;;;5.30;2.30;;;;;;;6.27;73.88;100146.84;104704;1266;65391;-56
2023/04/05 07:40:11;;;;;;;6.60;3.90;;;;;;;6.28;74.13;100150.13;105086;1267;61433;-56
2023/04/05 07:42:39;;;;;;;4.80;1.80;;;;;;;6.30;74.14;100154.70;105018;1263;65048;-55
2023/04/05 07:45:09;;;;;;;6.60;4.30;;;;;;;6.36;73.95;100158.67;104915;1263;59765;-56
2023/04/05 07:47:37;;;;;;;6.90;4.70;;;;;;;6.36;73.73;100160.77;105041;1263;59696;-57
2023/04/05 07:50:13;;;;;;;7.80;5.20;;;;;;;6.32;73.94;100161.55;105268;1263;65342;-55
2023/04/05 07:52:42;;;;;;;5.50;1.90;;;;;;;6.28;74.13;100159.68;105005;1266;62491;-55
2023/04/05 07:55:11;;;;;;;6.60;4.00;;;;;;;6.31;74.00;100160.72;104986;1269;63695;-57
2023/04/05 07:57:40;;;;;;;6.60;4.60;;;;;;;6.30;74.11;100159.37;105275;1268;59762;-59
2023/04/05 08:00:11;;;;;;;8.30;5.00;;;;;;;6.29;74.05;100155.44;104939;1266;59757;-58
2023/04/05 08:02:47;;;;;;;7.60;5.30;;;;;;;6.28;74.31;100154.66;104958;1266;65325;-55
2023/04/05 08:05:15;;;;;;;5.80;2.20;;;;;;;6.30;74.35;100157.47;105069;1265;62329;-55
2023/04/05 08:07:44;;;;;;;6.90;4.90;;;;;;;6.36;74.39;100156.23;105045;1268;64759;-56
2023/04/05 08:10:16;;;;;;;7.70;4.90;;;;;;;6.39;74.53;100159.33;104893;1263;59768;-56
2023/04/05 08:12:45;;;;;;;5.70;2.30;;;;;;;6.39;74.66;100158.83;105053;1263;59765;-56
2023/04/05 08:15:13;;;;;;;7.10;4.90;;;;;;;6.45;74.47;100157.56;104987;1269;65410;-56
2023/04/05 08:17:45;;;;;;;6.40;2.50;;;;;;;6.50;74.48;100165.93;105058;1264;63079;-56
2023/04/05 08:20:14;;;;;;;7.30;4.90;;;;;;;6.51;74.52;100165.86;105064;1264;65042;-57
2023/04/05 08:22:43;;;;;;;6.70;4.70;;;;;;;6.47;74.83;100163.67;104994;1266;59676;-61
2023/04/05 08:25:11;;;;;;;8.20;5.10;;;;;;;6.44;74.80;100160.55;104923;1264;59762;-56
2023/04/05 08:27:40;;;;;;;3.70;1.50;;;;;;;6.48;74.74;100158.71;105188;1263;65427;-57
2023/04/05 08:30:09;;;;;;;9.40;6.90;;;;;;;6.48;74.69;100158.34;104790;1269;61662;-57
2023/04/05 08:32:37;;;;;;;7.40;4.80;;;;;;;6.42;74.91;100159.66;105184;1267;63735;-58
2023/04/05 08:35:06;;;;;;;6.90;4.70;;;;;;;6.43;74.86;100164.84;105023;1266;59647;-57
2023/04/05 08:37:34;;;;;;;5.60;2.10;;;;;;;6.47;75.01;100165.25;104984;1264;59683;-57
2023/04/05 08:40:04;;;;;;;8.80;5.80;;;;;;;6.53;75.24;100170.77;105104;1268;65218;-57
2023/04/05 08:42:50;;;;;;;9.20;5.20;;;;;;;6.56;75.36;100176.52;105170;1269;62430;-57
2023/04/05 08:45:18;;;;;;;8.40;5.40;;;;;;;6.60;75.17;100173.97;105065;1263;65263;-57
2023/04/05 08:47:47;;;;;;;5.20;1.90;;;;;;;6.67;74.95;100170.16;104765;1263;59675;-58
2023/04/05 08:50:15;;;;;;;9.10;6.20;;;;;;;6.69;74.79;100162.21;105036;1269;59679;-56
2023/04/05 08:52:48;;;;;;;7.80;5.40;;;;;;;6.62;74.90;100165.10;104946;1269;65098;-57
2023/04/05 08:55:16;;;;;;;7.80;5.40;;;;;;;6.61;74.89;100161.85;105059;1266;62513;-56
2023/04/05 08:57:48;;;;;;;8.30;6.00;;;;;;;6.65;74.87;100164.25;105149;1269;65075;-58
2023/04/05 09:00:17;;;;;;;6.20;2.60;;;;;;;6.65;75.12;100160.73;105032;1266;60551;-57
2023/04/05 09:02:48;;;;;;;8.00;5.00;;;;;;;6.68;75.21;100148.34;105138;1263;60492;-57
2023/04/05 09:05:16;;;;;;;8.60;6.00;;;;;;;6.72;75.00;100149.48;105252;1266;66192;-57
2023/04/05 09:07:46;;;;;;;9.70;6.90;;;;;;;6.74;74.98;100147.58;105112;1264;62501;-58
2023/04/05 09:10:17;;;;;;;9.00;6.60;;;;;;;6.75;75.24;100148.60;104888;1264;64839;-57
2023/04/05 09:12:45;;;;;;;8.60;5.90;;;;;;;6.78;75.27;100145.71;105042;1266;60925;-57
2023/04/05 09:15:14;;;;;;;9.60;6.30;;;;;;;6.84;75.05;100149.48;104870;1264;60578;-57
2023/04/05 09:17:43;;;;;;;9.10;6.60;;;;;;;6.86;75.08;100145.72;104714;1270;73627;-57
2023/04/05 09:20:12;;;;;;;8.60;6.40;;;;;;;6.86;75.32;100149.38;104749;1264;62557;-57
2023/04/05 09:22:44;;;;;;;8.20;6.00;;;;;;;6.91;75.23;100150.14;104986;1266;65112;-58
2023/04/05 09:25:31;;;;;;;7.80;6.20;;;;;;;6.98;75.22;100149.77;107372;1267;60632;-58
2023/04/05 09:27:59;;;;;;;8.40;6.80;;;;;;;7.02;75.10;100148.66;104934;1263;60600;-62
2023/04/05 09:30:29;;;;;;;9.30;7.10;;;;;;;6.98;75.09;100145.58;108634;1264;66484;-60
2023/04/05 09:32:58;;;;;;;7.80;6.00;;;;;;;7.00;75.03;100144.10;108693;1264;61980;-55
2023/04/05 09:35:27;;;;;;;10.40;6.50;;;;;;;7.07;74.90;100138.36;108693;1263;65266;-56
2023/04/05 09:37:57;;;;;;;9.20;6.50;;;;;;;7.11;74.80;100136.88;108649;1265;58195;-56
2023/04/05 09:52:41;;;;;;;9.30;7.00;;;;;;;7.53;74.33;100132.09;103427;1283;604339;-61
2023/04/05 09:55:10;;;;;;;9.00;6.70;;;;;;;8.06;72.48;100128.16;104661;1270;112705;-63
2023/04/05 09:57:39;;;;;;;11.10;7.80;;;;;;;8.11;72.00;100128.65;104926;1267;59306;-63
2023/04/05 10:00:21;;;;;;;9.80;7.30;;;;;;;8.07;72.27;100135.12;104846;1267;64264;-61
2023/04/05 10:02:52;;;;;;;9.60;6.80;;;;;;;7.99;72.22;100129.56;104997;1264;62338;-62
2023/04/05 10:05:27;;;;;;;10.60;7.70;;;;;;;7.96;72.27;100126.95;104929;1268;64999;-66
2023/04/05 10:07:56;;;;;;;7.40;4.40;;;;;;;7.88;72.65;100132.27;104939;1263;59246;-63
2023/04/05 10:11:04;;;;;;;9.80;7.70;;;;;;;7.64;73.64;100130.71;102658;1289;602079;-65
2023/04/05 10:13:33;;;;;;;11.20;7.90;;;;;;;7.76;73.32;100127.90;107296;1268;59027;-63
2023/04/05 10:17:09;;;;;;;12.30;9.00;;;;;;;7.63;74.17;100125.49;104410;1286;600966;-96
2023/04/05 10:20:09;;;;;;;12.80;9.20;;;;;;;7.73;73.97;100122.72;105483;1266;59297;-93
2023/04/05 10:23:27;;;;;;;13.10;9.70;;;;;;;7.73;74.13;100120.45;105350;1275;59242;-93
2023/04/05 10:26:49;;;;;;;14.10;10.00;;;;;;;7.75;74.10;100124.99;104760;1278;63917;-92
2023/04/05 10:29:37;;;;;;;11.80;9.90;;;;;;;7.67;74.69;100128.23;105275;1268;428341;-93
2023/04/05 10:32:22;;;;;;;13.20;10.10;;;;;;;7.68;75.01;100123.95;105526;1264;65281;-93
2023/04/05 10:35:23;;;;;;;14.90;9.30;;;;;;;7.75;74.96;100122.42;106506;1270;59332;-93
2023/04/05 10:38:03;;;;;;;8.10;4.20;;;;;;;7.79;74.98;100125.20;106042;1270;59148;-93
2023/04/05 10:40:34;;;;;;;12.90;10.20;;;;;;;7.80;75.20;100125.88;105628;1264;64809;-93
2023/04/05 10:43:05;;;;;;;14.10;10.00;;;;;;;7.86;75.10;100127.35;105808;1260;61885;-93
2023/04/05 10:46:21;;;;;;;13.80;11.00;;;;;;;7.94;74.76;100123.99;106057;1258;64975;-95
2023/04/05 10:49:22;;;;;;;14.50;11.00;;;;;;;7.98;74.91;100120.90;105942;1260;59759;-94
2023/04/05 10:52:03;;;;;;;13.00;10.20;;;;;;;7.98;74.95;100121.08;105723;1260;59687;-94
2023/04/05 10:54:58;;;;;;;12.80;10.10;;;;;;;8.05;74.90;100123.52;105017;1259;65557;-62
2023/04/05 10:57:28;;;;;;;15.30;12.20;;;;;;;8.11;74.78;100119.63;105043;1264;61672;-62
2023/04/05 10:59:57;;;;;;;14.60;10.70;;;;;;;8.11;74.82;100115.04;105080;1263;64874;-62
2023/04/05 11:02:32;;;;;;;10.40;5.00;;;;;;;8.10;74.79;100115.46;105067;1259;59686;-61
2023/04/05 11:05:05;;;;;;;14.10;10.90;;;;;;;8.13;74.63;100113.66;104942;1261;59779;-60
2023/04/05 11:07:43;;;;;;;15.70;11.90;;;;;;;8.15;74.69;100116.31;105077;1259;64394;-61
2023/04/05 11:10:17;;;;;;;15.00;11.20;;;;;;;8.14;74.80;100113.10;105128;1259;62700;-61
2023/04/05 11:14:36;;;;;;;12.90;11.10;;;;;;;8.05;75.76;100111.85;103752;1288;600999;-93
2023/04/05 11:19:47;;;;;;;14.70;10.70;;;;;;;8.11;75.65;100115.39;102358;1292;600444;-61
2023/04/05 11:22:27;;;;;;;16.40;11.20;;;;;;;8.21;75.20;100119.05;105250;1268;59155;-59
2023/04/05 11:25:03;;;;;;;14.00;11.00;;;;;;;8.23;75.16;100115.55;104887;1272;59209;-60
2023/04/05 11:27:33;;;;;;;15.20;11.50;;;;;;;8.22;75.32;100120.77;104916;1269;64766;-60
2023/04/05 11:30:06;;;;;;;16.20;11.70;;;;;;;8.19;75.50;100118.30;104980;1263;63054;-59
2023/04/05 11:32:39;;;;;;;15.10;11.70;;;;;;;8.24;75.52;100122.98;104848;1268;181601;-60
2023/04/05 11:35:22;;;;;;;15.20;11.50;;;;;;;8.28;75.28;100119.71;105139;1264;59249;-60
2023/04/05 11:37:59;;;;;;;15.60;11.40;;;;;;;8.25;75.40;100111.21;105090;1263;59364;-61
2023/04/05 11:40:29;;;;;;;15.60;11.00;;;;;;;8.25;75.52;100106.86;104887;1263;64631;-60
2023/04/05 11:43:04;;;;;;;14.30;10.90;;;;;;;8.32;75.29;100105.47;105009;1264;62445;-60
2023/04/05 11:45:34;;;;;;;11.30;5.50;;;;;;;8.34;75.46;100106.55;105113;1266;65136;-59
2023/04/05 11:48:07;;;;;;;14.30;10.70;;;;;;;8.33;75.67;100103.30;105055;1263;59707;-60
2023/04/05 11:50:35;;;;;;;15.00;11.90;;;;;;;8.34;75.75;100096.59;105163;1263;59617;-61
2023/04/05 11:53:11;;;;;;;13.70;11.50;;;;;;;8.37;75.68;100094.45;105026;1263;65197;-61
2023/04/05 11:55:42;;;;;;;10.00;5.30;;;;;;;8.36;75.76;100088.04;104995;1265;62479;-61
2023/04/05 11:58:23;;;;;;;14.60;11.30;;;;;;;8.36;75.97;100091.35;105191;1263;65038;-60
2023/04/05 12:01:01;;;;;;;15.00;12.10;;;;;;;8.39;75.95;100093.38;104987;1263;60523;-60
2023/04/05 12:03:32;;;;;;;14.70;12.00;;;;;;;8.43;75.89;100091.91;105220;1262;59759;-60
2023/04/05 12:06:02;;;;;;;13.50;11.40;;;;;;;8.44;76.03;100084.87;105114;1266;65216;-61
2023/04/05 12:08:41;;;;;;;16.80;11.70;;;;;;;8.49;75.91;100081.89;104999;1266;61804;-60
2023/04/05 12:11:22;;;;;;;16.00;11.00;;;;;;;8.53;75.73;100071.19;105112;1263;63853;-61
2023/04/05 12:14:00;;;;;;;10.30;5.80;;;;;;;8.54;75.65;100072.56;104975;1263;59662;-59
2023/04/05 12:16:29;;;;;;;14.40;10.40;;;;;;;8.53;75.73;100070.48;105007;1263;59772;-60
2023/04/05 12:18:59;;;;;;;13.60;11.80;;;;;;;8.61;75.53;100064.67;104933;1265;65603;-58
2023/04/05 12:21:28;;;;;;;15.10;12.30;;;;;;;8.63;75.60;100059.95;104966;1264;62925;-61
2023/04/05 12:23:57;;;;;;;14.10;11.20;;;;;;;8.63;75.57;100055.27;104993;1264;65156;-61
2023/04/05 12:26:25;;;;;;;14.20;11.60;;;;;;;8.66;75.55;100053.46;104913;1263;59694;-61
2023/04/05 12:28:55;;;;;;;15.50;12.40;;;;;;;8.70;75.47;100051.38;105065;1263;59634;-61
2023/04/05 12:31:43;;;;;;;16.30;11.60;;;;;;;8.73;75.34;100053.29;105114;1262;64402;-62